createdAt,value
2023-01-09T00:03:49.448Z,6.20
2023-01-09T00:08:50.776Z,5.57
2023-01-09T00:13:52.083Z,6.27
2023-01-09T00:18:53.655Z,5.50
2023-01-09T00:23:55.236Z,7.37
2023-01-09T00:28:56.554Z,5.20
2023-01-09T00:33:58.017Z,4.00
2023-01-09T00:38:59.331Z,4.60
2023-01-09T00:44:09.634Z,5.18
2023-01-09T00:49:12.194Z,3.37
2023-01-09T00:54:14.973Z,4.10
2023-01-09T00:59:16.327Z,4.95
2023-01-09T01:04:36.279Z,6.03
2023-01-09T01:09:37.684Z,5.50
2023-01-09T01:14:38.953Z,4.40
2023-01-09T01:19:40.611Z,2.15
2023-01-09T01:24:41.902Z,2.85
2023-01-09T01:29:43.221Z,3.10
2023-01-09T01:34:46.354Z,1.60
2023-01-09T01:39:49.006Z,1.57
2023-01-09T01:44:56.518Z,0.95
2023-01-09T01:49:58.263Z,1.98
2023-01-09T01:54:59.736Z,1.23
2023-01-09T02:00:03.097Z,1.25
2023-01-09T02:05:04.629Z,2.33
2023-01-09T02:10:06.133Z,1.38
2023-01-09T02:15:09.593Z,0.75
2023-01-09T02:20:26.356Z,4.00
2023-01-09T02:26:00.260Z,2.42
2023-01-09T02:31:13.569Z,1.57
2023-01-09T02:36:37.668Z,1.35
2023-01-09T02:41:48.116Z,1.20
2023-01-09T02:47:00.042Z,1.43
2023-01-09T02:52:19.780Z,1.98
2023-01-09T02:57:53.301Z,2.07
2023-01-09T03:03:17.346Z,2.10
2023-01-09T03:08:20.662Z,1.23
2023-01-09T03:13:23.872Z,2.10
2023-01-09T03:18:27.023Z,1.48
2023-01-09T03:23:28.309Z,0.87
2023-01-09T03:28:29.914Z,0.95
2023-01-09T03:33:31.234Z,1.83
2023-01-09T03:38:32.670Z,2.37
2023-01-09T03:43:34.086Z,1.45
2023-01-09T03:48:35.371Z,0.70
2023-01-09T03:53:36.689Z,1.33
2023-01-09T03:58:37.974Z,1.40
2023-01-09T04:03:39.823Z,2.77
2023-01-09T04:08:41.118Z,2.65
2023-01-09T04:13:42.498Z,2.30
2023-01-09T04:18:43.787Z,1.52
2023-01-09T04:23:45.418Z,3.78
2023-01-09T04:28:47.390Z,1.87
2023-01-09T04:33:48.681Z,1.58
2023-01-09T04:38:49.933Z,1.80
2023-01-09T04:43:51.160Z,1.33
2023-01-09T04:48:52.438Z,3.38
2023-01-09T04:53:53.753Z,2.70
2023-01-09T04:58:55.032Z,3.00
2023-01-09T05:03:56.441Z,2.73
2023-01-09T05:08:57.903Z,2.33
2023-01-09T05:13:59.132Z,3.25
2023-01-09T05:19:00.557Z,2.23
2023-01-09T05:24:01.962Z,1.98
2023-01-09T05:29:03.267Z,4.30
2023-01-09T05:34:04.547Z,1.77
2023-01-09T05:39:06.451Z,3.33
2023-01-09T05:44:07.716Z,1.40
2023-01-09T05:49:09.008Z,1.42
2023-01-09T05:54:10.396Z,1.77
2023-01-09T05:59:11.640Z,2.65
2023-01-09T06:04:12.991Z,3.22
2023-01-09T06:09:14.215Z,3.60
2023-01-09T06:14:15.484Z,2.65
2023-01-09T06:19:16.835Z,2.87
2023-01-09T06:24:18.203Z,7.38
2023-01-09T06:29:19.540Z,4.70
2023-01-09T06:34:21.051Z,3.33
2023-01-09T06:39:22.355Z,2.40
2023-01-09T06:44:23.682Z,6.53
2023-01-09T06:49:24.967Z,4.60
2023-01-09T06:54:28.624Z,7.53
2023-01-09T06:59:30.005Z,9.60
2023-01-09T07:04:31.313Z,8.63
2023-01-09T07:09:32.557Z,4.67
2023-01-09T07:14:34.113Z,4.65
2023-01-09T07:19:35.431Z,7.70
2023-01-09T07:24:36.709Z,3.43
2023-01-09T07:29:38.025Z,4.07
2023-01-09T07:34:39.302Z,3.70
2023-01-09T07:39:40.603Z,7.00
2023-01-09T07:44:41.895Z,3.58
2023-01-09T07:49:43.205Z,8.57
2023-01-09T07:54:44.445Z,3.13
2023-01-09T07:59:45.716Z,5.97
2023-01-09T08:04:47.060Z,5.65
2023-01-09T08:09:48.307Z,3.42
2023-01-09T08:14:51.281Z,4.90
2023-01-09T08:19:52.526Z,4.68
2023-01-09T08:24:53.800Z,4.37
2023-01-09T08:29:55.058Z,5.75
2023-01-09T08:34:56.372Z,4.57
2023-01-09T08:39:57.704Z,3.57
2023-01-09T08:45:17.879Z,2.58
2023-01-09T08:50:19.390Z,7.97
2023-01-09T08:55:20.663Z,9.90
2023-01-09T09:00:23.164Z,5.80
2023-01-09T09:05:25.177Z,7.50
2023-01-09T09:10:27.752Z,3.90
2023-01-09T09:15:29.108Z,3.67
2023-01-09T09:20:31.786Z,7.20
2023-01-09T09:25:33.063Z,3.60
2023-01-09T09:30:34.760Z,2.97
2023-01-09T09:35:36.529Z,4.28
2023-01-09T09:40:56.856Z,5.57
2023-01-09T09:46:03.423Z,6.35
2023-01-09T09:51:04.753Z,3.75
2023-01-09T09:56:08.647Z,3.80
2023-01-09T10:01:12.813Z,4.38
2023-01-09T10:06:17.124Z,4.23
2023-01-09T10:11:22.786Z,8.88
2023-01-09T10:16:32.826Z,3.28
2023-01-09T10:21:37.175Z,3.87
2023-01-09T10:26:47.699Z,3.03
2023-01-09T10:32:15.308Z,4.10
2023-01-09T10:37:16.577Z,5.75
2023-01-09T10:42:24.790Z,6.93
2023-01-09T10:47:28.985Z,6.20
2023-01-09T10:52:33.695Z,4.45
2023-01-09T10:57:40.251Z,5.10
2023-01-09T11:02:41.887Z,3.67
2023-01-09T11:07:44.672Z,4.63
2023-01-09T11:12:45.997Z,5.60
2023-01-09T11:17:47.664Z,9.80
2023-01-09T11:22:49.864Z,7.90
2023-01-09T11:28:03.192Z,9.38
2023-01-09T11:33:43.762Z,5.93
2023-01-09T11:38:49.524Z,6.23
2023-01-09T11:43:52.133Z,5.20
2023-01-09T11:48:55.401Z,8.10
2023-01-09T11:53:59.776Z,7.00
2023-01-09T11:59:01.082Z,5.47
2023-01-09T12:04:21.156Z,4.83
2023-01-09T12:09:29.262Z,8.50
2023-01-09T12:14:43.305Z,5.20
2023-01-09T12:19:59.647Z,6.47
2023-01-09T12:25:14.429Z,3.63
2023-01-09T12:30:34.371Z,5.27
2023-01-09T12:35:38.439Z,4.57
2023-01-09T12:40:39.703Z,9.83
2023-01-09T12:45:41.325Z,3.40
2023-01-09T12:50:59.437Z,4.70
2023-01-09T12:56:06.115Z,8.40
2023-01-09T13:01:10.859Z,7.65
2023-01-09T13:06:15.072Z,3.70
2023-01-09T13:11:21.343Z,3.05
2023-01-09T13:16:28.524Z,4.95
2023-01-09T13:21:30.478Z,5.37
2023-01-09T13:26:42.487Z,9.80
2023-01-09T13:32:08.985Z,5.67
2023-01-09T13:37:23.606Z,4.30
2023-01-09T13:42:45.934Z,7.82
2023-01-09T13:47:47.380Z,4.47
2023-01-09T13:52:49.197Z,8.25
2023-01-09T13:58:05.954Z,11.73
2023-01-09T14:03:13.318Z,8.88
2023-01-09T14:08:19.260Z,4.80
2023-01-09T14:13:28.676Z,5.40
2023-01-09T14:18:32.006Z,6.15
2023-01-09T14:23:51.136Z,6.40
2023-01-09T14:29:13.703Z,5.28
2023-01-09T14:34:31.167Z,8.20
2023-01-09T14:39:33.259Z,8.90
2023-01-09T14:44:45.434Z,4.07
2023-01-09T14:50:04.066Z,4.37
2023-01-09T14:55:25.927Z,2.60
2023-01-09T15:00:27.227Z,4.78
2023-01-09T15:05:28.770Z,3.73
2023-01-09T15:10:33.760Z,8.30
2023-01-09T15:15:35.386Z,6.77
2023-01-09T15:20:36.748Z,6.90
2023-01-09T15:25:40.069Z,7.85
2023-01-09T15:30:43.346Z,7.20
2023-01-09T15:35:45.485Z,7.55
2023-01-09T15:41:00.456Z,4.77
2023-01-09T15:46:01.856Z,4.78
2023-01-09T15:51:05.920Z,6.35
2023-01-09T15:56:19.640Z,8.63
2023-01-09T16:01:34.277Z,8.98
2023-01-09T16:06:37.215Z,5.40
2023-01-09T16:11:38.549Z,12.48
2023-01-09T16:16:40.132Z,7.97
2023-01-09T16:21:41.557Z,8.07
2023-01-09T16:26:42.821Z,4.80
2023-01-09T16:31:44.206Z,6.67
2023-01-09T16:36:45.580Z,5.88
2023-01-09T16:42:05.650Z,5.50
2023-01-09T16:47:10.224Z,7.97
2023-01-09T16:52:16.924Z,6.32
2023-01-09T16:57:18.847Z,6.10
2023-01-09T17:02:20.478Z,5.43
2023-01-09T17:07:22.862Z,8.85
2023-01-09T17:12:24.832Z,4.87
2023-01-09T17:17:26.153Z,4.43
2023-01-09T17:22:27.490Z,4.50
2023-01-09T17:27:52.768Z,3.70
2023-01-09T17:32:54.122Z,5.32
2023-01-09T17:37:55.465Z,4.63
2023-01-09T17:42:56.761Z,5.50
2023-01-09T17:47:58.029Z,4.33
2023-01-09T17:52:59.369Z,3.72
2023-01-09T17:58:00.651Z,2.88
2023-01-09T18:03:02.668Z,7.60
2023-01-09T18:08:05.707Z,5.53
2023-01-09T18:13:08.779Z,4.07
2023-01-09T18:18:10.193Z,4.22
2023-01-09T18:23:11.821Z,3.85
2023-01-09T18:28:16.747Z,3.47
2023-01-09T18:33:18.453Z,5.60
2023-01-09T18:38:19.758Z,4.07
2023-01-09T18:43:21.441Z,5.47
2023-01-09T18:48:23.007Z,5.70
2023-01-09T18:53:24.302Z,6.00
2023-01-09T18:58:25.548Z,7.20
2023-01-09T19:03:27.290Z,5.50
2023-01-09T19:08:29.557Z,5.68
2023-01-09T19:13:32.279Z,7.15
2023-01-09T19:18:34.993Z,6.03
2023-01-09T19:23:36.260Z,4.97
2023-01-09T19:28:38.829Z,7.00
2023-01-09T19:33:40.110Z,9.13
2023-01-09T19:38:41.533Z,6.25
2023-01-09T19:43:43.248Z,8.10
2023-01-09T19:48:44.790Z,7.55
2023-01-09T19:53:50.607Z,6.33
2023-01-09T19:58:55.662Z,6.45
2023-01-09T20:03:57.686Z,7.93
2023-01-09T20:09:00.003Z,5.87
2023-01-09T20:14:01.644Z,8.05
2023-01-09T20:19:07.594Z,7.70
2023-01-09T20:24:10.525Z,7.47
2023-01-09T20:29:12.781Z,5.82
2023-01-09T20:34:14.716Z,6.93
2023-01-09T20:39:16.044Z,6.45
2023-01-09T20:44:17.328Z,5.90
2023-01-09T20:49:19.100Z,7.10
2023-01-09T20:54:23.679Z,8.10
2023-01-09T20:59:24.951Z,6.73
2023-01-09T21:04:26.360Z,6.45
2023-01-09T21:09:29.120Z,6.43
2023-01-09T21:14:31.665Z,5.40
2023-01-09T21:19:32.893Z,8.25
2023-01-09T21:24:34.171Z,5.37
2023-01-09T21:29:35.497Z,4.80
2023-01-09T21:34:36.861Z,8.67
2023-01-09T21:39:38.095Z,7.38
2023-01-09T21:44:58.161Z,6.82
2023-01-09T21:49:59.438Z,6.97
2023-01-09T21:55:00.745Z,5.65
2023-01-09T22:00:02.025Z,7.83
2023-01-09T22:05:03.422Z,5.70
2023-01-09T22:10:05.106Z,4.95
2023-01-09T22:15:06.549Z,4.37
2023-01-09T22:20:09.068Z,4.45
2023-01-09T22:25:10.894Z,4.23
2023-01-09T22:30:12.317Z,3.45
2023-01-09T22:35:13.603Z,3.45
2023-01-09T22:40:14.912Z,3.97
2023-01-09T22:45:16.185Z,5.82
2023-01-09T22:50:17.473Z,5.40
2023-01-09T22:55:18.721Z,4.35
2023-01-09T23:00:20.019Z,2.28
2023-01-09T23:05:21.298Z,2.13
2023-01-09T23:10:22.599Z,2.78
2023-01-09T23:15:23.835Z,3.03
2023-01-09T23:20:25.258Z,3.80
2023-01-09T23:25:26.573Z,3.50
2023-01-09T23:30:27.811Z,4.03
2023-01-09T23:35:29.033Z,4.85
2023-01-09T23:40:30.254Z,3.77
2023-01-09T23:45:33.145Z,4.80
2023-01-09T23:50:34.576Z,4.50
2023-01-09T23:55:37.072Z,5.43
